Time;durP1;ratioP1;P1;durP2;ratioP2;P2;SDS_P1;SDS_P2;PMS_P1;PMS_P2;Temp;Humidity;BMP_temperature;BMP_pressure;BME280_temperature;BME280_humidity;BME280_pressure;Samples;Min_cycle;Max_cycle;Signal;HPM_P1;HPM_P2
2022/08/02 00:00:40;;;;;;;1.70;1.60;;;28.00;66.10;;;;;;5095259;28;20444;-74
2022/08/02 00:03:09;;;;;;;2.03;1.93;;;28.00;66.10;;;;;;5090655;28;20469;-74
2022/08/02 00:05:39;;;;;;;2.00;1.90;;;28.00;66.20;;;;;;5095393;28;20492;-74
2022/08/02 00:08:07;;;;;;;2.30;2.10;;;28.00;66.10;;;;;;5094587;28;20451;-74
2022/08/02 00:10:36;;;;;;;1.97;1.80;;;28.00;66.10;;;;;;5095442;28;20510;-73
2022/08/02 00:13:04;;;;;;;2.50;2.40;;;28.00;65.90;;;;;;5092760;28;20457;-73
2022/08/02 00:15:33;;;;;;;2.00;1.90;;;28.00;65.90;;;;;;5093344;28;20449;-74
2022/08/02 00:18:01;;;;;;;1.90;1.80;;;28.00;66.00;;;;;;5094821;28;20913;-74
2022/08/02 00:20:30;;;;;;;3.17;2.97;;;28.00;66.00;;;;;;5095057;28;20495;-74
2022/08/02 00:22:59;;;;;;;1.87;1.77;;;28.00;66.20;;;;;;5094017;28;20493;-74
2022/08/02 00:25:28;;;;;;;1.83;1.70;;;28.00;66.20;;;;;;5094450;28;20454;-73
2022/08/02 00:27:56;;;;;;;2.33;2.23;;;28.00;66.30;;;;;;5094439;28;20503;-73
2022/08/02 00:30:24;;;;;;;2.20;2.07;;;27.90;66.30;;;;;;5076731;28;20485;-74
2022/08/02 00:32:53;;;;;;;1.70;1.60;;;27.90;66.20;;;;;;5076683;28;20458;-76
2022/08/02 00:35:21;;;;;;;2.47;2.10;;;27.90;66.10;;;;;;5087552;28;20453;-73
2022/08/02 00:37:50;;;;;;;1.77;1.60;;;27.90;66.50;;;;;;5084113;28;21058;-73
2022/08/02 00:40:22;;;;;;;2.77;2.50;;;27.90;66.50;;;;;;5073975;28;20426;-74
2022/08/02 00:43:03;;;;;;;2.40;2.20;;;27.90;66.40;;;;;;5083819;28;20441;-73
2022/08/02 00:45:31;;;;;;;3.87;2.20;;;27.90;66.50;;;;;;5074265;28;20429;-73
2022/08/02 00:48:22;;;;;;;2.27;2.07;;;27.90;66.50;;;;;;5080123;28;20844;-73
2022/08/02 00:50:50;;;;;;;2.20;2.00;;;27.90;66.40;;;;;;5094241;28;20518;-73
2022/08/02 00:53:18;;;;;;;3.07;2.37;;;27.90;66.30;;;;;;5090717;28;20932;-73
2022/08/02 00:55:48;;;;;;;2.33;2.13;;;27.80;66.20;;;;;;5076444;28;20465;-73
2022/08/02 00:58:16;;;;;;;2.70;1.83;;;27.80;66.20;;;;;;5093845;28;20826;-73
2022/08/02 01:00:44;;;;;;;1.87;1.73;;;27.80;66.30;;;;;;5093785;28;20956;-74
2022/08/02 01:03:13;;;;;;;1.90;1.80;;;27.80;66.30;;;;;;5094496;28;20441;-73
2022/08/02 01:05:42;;;;;;;2.47;1.70;;;27.80;66.20;;;;;;5097788;28;20493;-73
2022/08/02 01:08:34;;;;;;;1.97;1.73;;;27.70;66.20;;;;;;5084942;28;20457;-74
2022/08/02 01:11:11;;;;;;;1.70;1.60;;;27.70;66.20;;;;;;5097405;28;20483;-73
2022/08/02 01:13:40;;;;;;;2.33;2.13;;;27.70;66.10;;;;;;5097929;28;20452;-73
2022/08/02 01:16:15;;;;;;;1.70;1.60;;;27.70;66.10;;;;;;5095645;28;21036;-73
2022/08/02 01:18:47;;;;;;;1.73;1.63;;;27.70;66.20;;;;;;5077040;28;20425;-75
2022/08/02 01:21:34;;;;;;;1.73;1.63;;;27.70;66.30;;;;;;5079039;28;20502;-73
2022/08/02 01:24:34;;;;;;;1.50;1.37;;;27.70;66.30;;;;;;5092274;28;20792;-73
2022/08/02 01:27:19;;;;;;;2.17;1.97;;;27.70;66.30;;;;;;5090177;28;20453;-73
2022/08/02 01:29:56;;;;;;;1.67;1.57;;;27.70;66.10;;;;;;5077075;28;20441;-73
2022/08/02 01:32:29;;;;;;;2.63;1.40;;;27.70;66.30;;;;;;5093336;28;20502;-73
2022/08/02 01:35:02;;;;;;;1.67;1.57;;;27.70;66.20;;;;;;5092868;28;20458;-73
2022/08/02 01:37:37;;;;;;;1.90;1.60;;;27.70;66.00;;;;;;5073717;28;20790;-73
2022/08/02 01:40:10;;;;;;;1.50;1.40;;;27.70;66.10;;;;;;5083718;28;20999;-73
2022/08/02 01:42:41;;;;;;;3.90;1.23;;;27.70;66.10;;;;;;5093247;28;20514;-73
2022/08/02 01:45:13;;;;;;;1.70;1.60;;;27.70;65.90;;;;;;5092762;28;20542;-74
2022/08/02 01:47:43;;;;;;;1.80;1.70;;;27.70;65.90;;;;;;5093045;28;20426;-74
2022/08/02 01:50:14;;;;;;;1.43;1.33;;;27.70;65.80;;;;;;5092249;28;20450;-74
2022/08/02 01:52:47;;;;;;;1.63;1.53;;;27.70;65.80;;;;;;5093261;28;20543;-74
2022/08/02 01:55:25;;;;;;;2.00;1.90;;;27.60;65.90;;;;;;5092128;28;20471;-71
2022/08/02 01:58:05;;;;;;;2.03;1.67;;;27.60;65.90;;;;;;5092993;28;20912;-72
2022/08/02 02:00:38;;;;;;;1.60;1.50;;;27.60;65.90;;;;;;5092422;28;20496;-72
2022/08/02 02:03:12;;;;;;;2.20;1.70;;;27.60;65.80;;;;;;5089420;28;20488;-73
2022/08/02 02:05:43;;;;;;;2.00;1.90;;;27.60;65.90;;;;;;5090776;28;20500;-72
2022/08/02 02:08:12;;;;;;;1.27;1.27;;;27.60;65.90;;;;;;5092724;28;20512;-72
2022/08/02 02:10:55;;;;;;;2.00;1.80;;;27.60;65.70;;;;;;5092432;28;20456;-71
2022/08/02 02:13:26;;;;;;;1.70;1.60;;;27.60;65.70;;;;;;5092853;28;20608;-71
2022/08/02 02:16:09;;;;;;;1.93;1.53;;;27.60;65.70;;;;;;5092695;28;20471;-72
2022/08/02 02:18:42;;;;;;;1.90;1.77;;;27.60;65.90;;;;;;5092368;28;20509;-72
2022/08/02 02:21:12;;;;;;;2.30;1.50;;;27.60;65.90;;;;;;5069728;28;20449;-72
2022/08/02 02:23:42;;;;;;;2.57;2.03;;;27.60;65.70;;;;;;5071764;28;20827;-72
2022/08/02 02:26:13;;;;;;;1.77;1.43;;;27.60;65.70;;;;;;5088937;28;20441;-72
2022/08/02 02:28:47;;;;;;;2.20;2.00;;;27.60;65.70;;;;;;5092293;28;20490;-73
2022/08/02 02:31:19;;;;;;;4.30;2.40;;;27.60;65.70;;;;;;5092155;28;20874;-72
2022/08/02 02:33:51;;;;;;;1.73;1.63;;;27.60;66.00;;;;;;5074567;28;20457;-74
2022/08/02 02:36:21;;;;;;;2.13;1.93;;;27.50;65.90;;;;;;5092296;28;20811;-73
2022/08/02 02:38:51;;;;;;;2.83;2.63;;;27.60;65.90;;;;;;5079111;28;20430;-73
2022/08/02 02:41:22;;;;;;;2.67;2.03;;;27.50;66.00;;;;;;5084311;28;20460;-73
2022/08/02 02:43:53;;;;;;;5.40;4.60;;;27.50;65.90;;;;;;5091405;28;20464;-73
2022/08/02 02:46:23;;;;;;;2.57;2.30;;;27.50;66.10;;;;;;5090937;28;20464;-73
2022/08/02 02:48:52;;;;;;;3.83;2.60;;;27.50;65.90;;;;;;5073909;28;20483;-73
2022/08/02 02:51:22;;;;;;;4.23;3.83;;;27.50;65.90;;;;;;5073536;28;20484;-74
2022/08/02 02:53:51;;;;;;;2.57;2.37;;;27.50;66.00;;;;;;5091710;28;20484;-73
2022/08/02 02:56:42;;;;;;;3.23;2.93;;;27.50;65.90;;;;;;5092106;28;20521;-73
2022/08/02 02:59:13;;;;;;;3.70;3.17;;;27.50;66.00;;;;;;5088578;28;20489;-73
2022/08/02 03:01:43;;;;;;;3.80;3.50;;;27.50;66.00;;;;;;5075279;28;20549;-73
2022/08/02 03:04:26;;;;;;;3.90;3.20;;;27.50;66.20;;;;;;5071271;28;20487;-72
2022/08/02 03:07:15;;;;;;;4.00;3.27;;;27.50;65.90;;;;;;5074712;28;20535;-72
2022/08/02 03:09:43;;;;;;;3.10;2.90;;;27.50;65.90;;;;;;5091472;28;20445;-72
2022/08/02 03:12:14;;;;;;;3.40;3.20;;;27.50;65.90;;;;;;5092148;28;20464;-72
2022/08/02 03:14:47;;;;;;;3.30;3.00;;;27.50;65.90;;;;;;5073737;28;20439;-72
2022/08/02 03:17:18;;;;;;;3.87;3.57;;;27.50;65.90;;;;;;5078434;28;20461;-72
2022/08/02 03:19:46;;;;;;;3.53;2.70;;;27.50;65.90;;;;;;5092230;28;20456;-72
2022/08/02 03:22:14;;;;;;;3.50;3.20;;;27.50;65.90;;;;;;5092193;28;20436;-72
2022/08/02 03:24:43;;;;;;;4.00;3.03;;;27.50;65.90;;;;;;5091376;28;20426;-72
2022/08/02 03:27:11;;;;;;;3.50;2.90;;;27.50;65.90;;;;;;5089385;28;20456;-72
2022/08/02 03:29:39;;;;;;;4.70;3.27;;;27.50;66.00;;;;;;5071513;28;20431;-72
2022/08/02 03:32:07;;;;;;;5.00;4.23;;;27.50;65.90;;;;;;5089041;28;20500;-72
2022/08/02 03:34:38;;;;;;;2.97;2.77;;;27.40;66.20;;;;;;5093044;28;20455;-72
2022/08/02 03:37:06;;;;;;;3.47;3.17;;;27.40;66.20;;;;;;5086397;28;20442;-72
2022/08/02 03:39:35;;;;;;;4.67;3.63;;;27.40;66.00;;;;;;5090253;28;20459;-72
2022/08/02 03:42:09;;;;;;;4.70;3.30;;;27.40;65.90;;;;;;5094234;28;20463;-72
2022/08/02 03:44:43;;;;;;;4.10;3.63;;;27.40;65.90;;;;;;5094641;28;20454;-72
2022/08/02 03:47:12;;;;;;;3.83;3.43;;;27.50;66.00;;;;;;5087840;28;20437;-76
2022/08/02 03:49:43;;;;;;;3.60;3.30;;;27.40;66.30;;;;;;5095400;28;20912;-72
2022/08/02 03:52:12;;;;;;;4.50;4.10;;;27.40;66.30;;;;;;5095416;28;20483;-72
2022/08/02 03:54:41;;;;;;;4.50;3.47;;;27.40;66.40;;;;;;5093928;28;20445;-72
2022/08/02 03:57:13;;;;;;;4.00;3.67;;;27.40;66.20;;;;;;5095213;28;20794;-75
2022/08/02 03:59:42;;;;;;;6.27;4.87;;;27.40;66.40;;;;;;5095151;28;20757;-72
2022/08/02 04:02:11;;;;;;;5.23;3.50;;;27.40;66.40;;;;;;5063268;28;20514;-73
2022/08/02 04:04:41;;;;;;;3.80;3.40;;;27.40;66.20;;;;;;5084756;28;21004;-72
2022/08/02 04:07:09;;;;;;;6.57;4.07;;;27.40;66.00;;;;;;5081083;28;20503;-72
2022/08/02 04:09:38;;;;;;;9.97;7.20;;;27.40;66.40;;;;;;5093349;28;20476;-72
2022/08/02 04:12:06;;;;;;;8.00;3.90;;;27.40;66.40;;;;;;5094821;28;20545;-72
2022/08/02 04:14:34;;;;;;;7.33;5.43;;;27.40;66.30;;;;;;5094617;28;20931;-72
2022/08/02 04:17:08;;;;;;;4.43;4.03;;;27.40;66.50;;;;;;5094772;28;20484;-72
2022/08/02 04:19:40;;;;;;;4.27;3.97;;;27.40;66.30;;;;;;5091908;28;20448;-72
2022/08/02 04:22:16;;;;;;;4.83;4.43;;;27.40;66.40;;;;;;5091832;28;20487;-73
2022/08/02 04:24:48;;;;;;;4.80;4.40;;;27.40;66.50;;;;;;5092930;28;20449;-73
2022/08/02 04:27:19;;;;;;;5.07;4.07;;;27.40;66.40;;;;;;5094877;28;20846;-72
2022/08/02 04:30:09;;;;;;;5.23;4.50;;;27.40;66.20;;;;;;5073828;28;20426;-72
2022/08/02 04:32:38;;;;;;;4.60;4.13;;;27.40;66.30;;;;;;5083065;28;20478;-72
2022/08/02 04:35:07;;;;;;;6.20;4.73;;;27.40;66.20;;;;;;5087448;28;20473;-72
2022/08/02 04:37:49;;;;;;;6.67;5.00;;;27.40;66.40;;;;;;5093933;28;20778;-72
2022/08/02 04:40:37;;;;;;;6.47;5.87;;;27.40;66.50;;;;;;5081253;28;20973;-72
2022/08/02 04:43:06;;;;;;;6.53;6.03;;;27.40;66.40;;;;;;5095103;28;20510;-72
2022/08/02 04:45:35;;;;;;;9.33;7.80;;;27.40;66.60;;;;;;5087127;28;20461;-72
2022/08/02 04:48:05;;;;;;;5.90;5.30;;;27.40;66.60;;;;;;5093634;28;20568;-72
2022/08/02 04:50:34;;;;;;;4.83;4.40;;;27.40;66.40;;;;;;5094680;28;20817;-72
2022/08/02 04:53:04;;;;;;;6.60;5.10;;;27.40;66.30;;;;;;5088073;28;20517;-73
2022/08/02 04:55:32;;;;;;;8.20;5.67;;;27.40;66.10;;;;;;5074428;28;20465;-72
2022/08/02 04:58:00;;;;;;;8.83;6.93;;;27.40;66.40;;;;;;5085082;28;20512;-72
2022/08/02 05:00:40;;;;;;;5.60;5.10;;;27.40;66.60;;;;;;5091263;28;20475;-72
2022/08/02 05:03:09;;;;;;;5.37;4.93;;;27.40;66.70;;;;;;5093358;28;20980;-72
2022/08/02 05:05:38;;;;;;;6.30;5.30;;;27.40;66.20;;;;;;5093931;28;20940;-72
2022/08/02 05:08:07;;;;;;;6.60;5.43;;;27.40;66.20;;;;;;5073206;28;20556;-72
2022/08/02 05:10:35;;;;;;;6.43;5.70;;;27.40;66.40;;;;;;5075242;28;20543;-72
2022/08/02 05:13:05;;;;;;;8.60;6.30;;;27.40;66.40;;;;;;5073877;28;20459;-72
2022/08/02 05:15:34;;;;;;;6.90;6.20;;;27.40;66.50;;;;;;5083892;28;20534;-72
2022/08/02 05:18:02;;;;;;;5.73;5.23;;;27.40;66.50;;;;;;5071439;28;20540;-72
2022/08/02 05:20:30;;;;;;;8.87;6.87;;;27.40;66.60;;;;;;5092767;28;20971;-72
2022/08/02 05:22:58;;;;;;;5.00;4.50;;;27.40;66.60;;;;;;5093629;28;20802;-73
2022/08/02 05:25:28;;;;;;;6.97;6.27;;;27.40;66.40;;;;;;5073202;28;20493;-72
2022/08/02 05:27:56;;;;;;;6.00;5.30;;;27.40;66.80;;;;;;5086770;28;20501;-72
2022/08/02 05:30:24;;;;;;;6.33;5.63;;;27.40;66.50;;;;;;5090413;28;21024;-75
2022/08/02 05:32:53;;;;;;;5.60;5.10;;;27.40;66.80;;;;;;5081017;28;20468;-72
2022/08/02 05:35:23;;;;;;;5.37;4.90;;;27.40;66.40;;;;;;5092766;28;20534;-72
2022/08/02 05:37:52;;;;;;;6.93;6.23;;;27.40;66.40;;;;;;5092705;28;20543;-72
2022/08/02 05:40:21;;;;;;;6.13;4.77;;;27.40;66.80;;;;;;5088356;28;20457;-72
2022/08/02 05:42:54;;;;;;;5.57;5.10;;;27.40;66.50;;;;;;5091033;28;20453;-72
2022/08/02 05:45:22;;;;;;;8.20;6.93;;;27.40;66.30;;;;;;5092701;28;20526;-72
2022/08/02 05:47:51;;;;;;;6.00;5.53;;;27.50;66.50;;;;;;5090269;28;20955;-72
2022/08/02 05:50:20;;;;;;;6.03;5.43;;;27.40;66.70;;;;;;5089451;28;20479;-74
2022/08/02 05:53:01;;;;;;;6.93;6.33;;;27.40;66.60;;;;;;5091998;28;20477;-72
2022/08/02 05:55:34;;;;;;;5.40;5.00;;;27.40;66.70;;;;;;5086208;28;21324;-74
2022/08/02 05:58:11;;;;;;;7.23;6.63;;;27.40;66.30;;;;;;5091793;28;20495;-72
2022/08/02 06:00:41;;;;;;;7.43;6.70;;;27.50;66.70;;;;;;5090238;28;20514;-74
2022/08/02 06:03:18;;;;;;;6.60;6.03;;;27.50;66.60;;;;;;5090571;28;20453;-72
2022/08/02 06:05:53;;;;;;;4.40;4.00;;;27.50;66.60;;;;;;5089646;28;20489;-74
2022/08/02 06:08:25;;;;;;;5.10;4.67;;;27.50;66.10;;;;;;5088452;28;20459;-73
2022/08/02 06:10:59;;;;;;;5.53;5.03;;;27.50;66.00;;;;;;5086212;28;20452;-72
2022/08/02 06:13:29;;;;;;;6.90;6.20;;;27.50;66.00;;;;;;5089078;28;20473;-72
2022/08/02 06:15:59;;;;;;;4.50;4.17;;;27.60;66.10;;;;;;5086839;28;20464;-73
2022/08/02 06:18:28;;;;;;;5.57;5.07;;;27.60;65.70;;;;;;5087116;28;20460;-72
2022/08/02 06:20:58;;;;;;;6.10;5.50;;;27.60;65.90;;;;;;5093853;28;20476;-72
2022/08/02 06:23:47;;;;;;;6.17;5.67;;;27.60;65.90;;;;;;5093055;28;20495;-72
2022/08/02 06:26:28;;;;;;;5.83;5.27;;;27.60;65.90;;;;;;5095333;28;20544;-67
2022/08/02 06:28:58;;;;;;;4.90;4.50;;;27.60;65.90;;;;;;5097096;28;20446;-67
2022/08/02 06:31:27;;;;;;;6.97;5.20;;;27.60;66.00;;;;;;5093556;28;20461;-67
2022/08/02 06:33:55;;;;;;;4.80;4.40;;;27.70;66.10;;;;;;5092997;28;20559;-68
2022/08/02 06:36:31;;;;;;;6.63;6.03;;;27.70;66.10;;;;;;5082965;28;20505;-67
2022/08/02 06:39:04;;;;;;;4.97;4.60;;;27.70;66.40;;;;;;5090121;28;20494;-67
2022/08/02 06:41:39;;;;;;;5.20;4.80;;;27.70;66.50;;;;;;5091163;28;20439;-67
2022/08/02 06:44:15;;;;;;;6.50;5.37;;;27.80;66.50;;;;;;5078567;28;21239;-67
2022/08/02 06:47:03;;;;;;;5.33;4.80;;;27.80;66.50;;;;;;5088626;28;20455;-67
2022/08/02 06:49:40;;;;;;;6.03;5.40;;;27.80;66.70;;;;;;5084113;28;20524;-68
2022/08/02 06:52:22;;;;;;;7.13;6.13;;;27.80;67.00;;;;;;5091322;28;20821;-67
2022/08/02 06:54:57;;;;;;;7.17;6.57;;;27.90;66.90;;;;;;5089645;28;20519;-67
2022/08/02 06:57:25;;;;;;;6.40;5.27;;;27.90;67.30;;;;;;5084251;28;21212;-66
2022/08/02 06:59:54;;;;;;;6.90;5.80;;;27.90;67.10;;;;;;5091840;28;20480;-66
2022/08/02 07:02:23;;;;;;;7.10;6.20;;;27.90;67.20;;;;;;5091380;28;20841;-66
2022/08/02 07:04:51;;;;;;;7.13;5.90;;;27.90;67.10;;;;;;5091643;28;20512;-66
2022/08/02 07:07:19;;;;;;;6.50;5.87;;;28.00;67.00;;;;;;5092314;28;20517;-66
2022/08/02 07:09:48;;;;;;;7.70;6.90;;;28.00;67.10;;;;;;5092927;28;21116;-67
2022/08/02 07:12:29;;;;;;;6.90;5.90;;;28.00;67.00;;;;;;5094917;28;20495;-68
2022/08/02 07:15:00;;;;;;;6.67;6.00;;;28.00;67.10;;;;;;5095595;28;20473;-67
2022/08/02 07:17:28;;;;;;;6.83;6.10;;;28.00;67.00;;;;;;5094838;28;20477;-66
2022/08/02 07:19:57;;;;;;;6.23;5.67;;;28.10;67.00;;;;;;5093218;28;20452;-67
2022/08/02 07:22:25;;;;;;;6.67;6.00;;;28.10;67.10;;;;;;5093846;28;20445;-66
2022/08/02 07:24:55;;;;;;;6.00;5.40;;;28.10;67.20;;;;;;5088678;28;20517;-66
2022/08/02 07:27:24;;;;;;;6.00;5.40;;;28.10;67.00;;;;;;5091954;28;20462;-67
2022/08/02 07:29:52;;;;;;;5.80;5.30;;;28.10;66.90;;;;;;5095345;28;20448;-67
2022/08/02 07:32:24;;;;;;;6.20;5.57;;;28.10;66.90;;;;;;5095853;28;20509;-67
2022/08/02 07:34:54;;;;;;;7.63;6.30;;;28.10;66.90;;;;;;5093716;28;20846;-67
2022/08/02 07:37:25;;;;;;;5.97;5.53;;;28.10;66.80;;;;;;5094095;28;20466;-67
2022/08/02 07:40:14;;;;;;;6.30;5.10;;;28.20;66.60;;;;;;5093710;28;20454;-69
2022/08/02 07:42:48;;;;;;;6.23;5.73;;;28.20;66.70;;;;;;5094116;28;20447;-66
2022/08/02 07:45:16;;;;;;;5.67;5.23;;;28.20;66.80;;;;;;5090778;28;20459;-67
2022/08/02 07:47:46;;;;;;;6.00;5.50;;;28.20;67.10;;;;;;5094136;28;20806;-67
2022/08/02 07:50:15;;;;;;;5.73;5.20;;;28.20;66.70;;;;;;5093999;28;20913;-66
2022/08/02 07:52:45;;;;;;;5.10;4.70;;;28.20;66.70;;;;;;5093189;28;20477;-68
2022/08/02 07:55:16;;;;;;;9.00;5.37;;;28.20;66.60;;;;;;5088510;28;20972;-67
2022/08/02 07:57:45;;;;;;;5.17;4.77;;;28.20;66.60;;;;;;5099846;28;20454;-69
2022/08/02 08:00:16;;;;;;;5.30;4.87;;;28.20;66.60;;;;;;5093368;28;20525;-68
2022/08/02 08:02:46;;;;;;;6.23;5.83;;;28.30;66.50;;;;;;5094154;28;20450;-68
2022/08/02 08:05:15;;;;;;;4.73;4.33;;;28.30;66.70;;;;;;5081058;28;20552;-68
2022/08/02 08:07:43;;;;;;;5.30;4.80;;;28.30;66.50;;;;;;5090282;28;20461;-71
2022/08/02 08:10:11;;;;;;;4.37;4.00;;;28.30;66.40;;;;;;5090517;28;20864;-69
2022/08/02 08:12:40;;;;;;;5.27;4.77;;;28.30;66.80;;;;;;5089459;28;20527;-67
2022/08/02 08:15:09;;;;;;;5.00;4.57;;;28.30;66.30;;;;;;5091562;28;20876;-66
2022/08/02 08:17:37;;;;;;;4.67;3.90;;;28.30;66.30;;;;;;5087742;28;20448;-68
2022/08/02 08:20:08;;;;;;;5.13;4.73;;;28.30;66.50;;;;;;5091981;28;20441;-66
2022/08/02 08:22:43;;;;;;;4.60;4.30;;;28.30;66.30;;;;;;5093576;28;20485;-66
2022/08/02 08:25:11;;;;;;;4.77;4.47;;;28.30;66.20;;;;;;5088068;28;21031;-67
2022/08/02 08:27:48;;;;;;;4.23;3.90;;;28.30;66.10;;;;;;5092911;28;20455;-66
2022/08/02 08:30:17;;;;;;;5.37;4.53;;;28.30;66.10;;;;;;5089861;28;20516;-66
2022/08/02 08:32:45;;;;;;;4.87;4.43;;;28.40;66.00;;;;;;5090469;28;20457;-67
2022/08/02 08:35:15;;;;;;;4.37;4.07;;;28.40;65.90;;;;;;5092153;28;20562;-66
2022/08/02 08:37:44;;;;;;;3.60;3.40;;;28.40;65.80;;;;;;5091018;28;20479;-67
2022/08/02 08:40:13;;;;;;;4.17;3.87;;;28.40;65.90;;;;;;5093100;28;20542;-67
2022/08/02 08:42:47;;;;;;;4.70;4.30;;;28.40;65.80;;;;;;5092636;28;20457;-66
2022/08/02 08:45:16;;;;;;;4.30;3.90;;;28.50;65.70;;;;;;5092326;28;20454;-67
2022/08/02 08:47:52;;;;;;;4.23;3.93;;;28.50;65.70;;;;;;5078644;28;20543;-67
2022/08/02 08:50:27;;;;;;;5.00;3.80;;;28.50;65.70;;;;;;5090609;28;20971;-66
2022/08/02 08:53:02;;;;;;;3.60;3.30;;;28.50;65.60;;;;;;5093209;28;20482;-66
2022/08/02 08:55:32;;;;;;;4.30;4.00;;;28.50;65.60;;;;;;5090107;28;20476;-68
2022/08/02 08:58:02;;;;;;;4.60;3.50;;;28.60;65.60;;;;;;5091745;28;20949;-67
2022/08/02 09:00:32;;;;;;;4.93;4.53;;;28.60;65.50;;;;;;5091734;28;20563;-67
2022/08/02 09:03:03;;;;;;;4.40;4.00;;;28.60;65.50;;;;;;5094192;28;20537;-67
2022/08/02 09:05:34;;;;;;;3.70;3.40;;;28.60;66.10;;;;;;5092684;28;20896;-70
2022/08/02 09:08:03;;;;;;;3.90;3.60;;;28.60;65.60;;;;;;5088717;28;20464;-67
2022/08/02 09:10:33;;;;;;;3.20;3.00;;;28.60;65.40;;;;;;5086571;28;20545;-67
2022/08/02 09:13:14;;;;;;;3.20;3.00;;;28.60;65.40;;;;;;5088521;28;20469;-68
2022/08/02 09:16:15;;;;;;;3.73;3.40;;;28.60;65.40;;;;;;5089574;28;20460;-67
2022/08/02 09:18:46;;;;;;;3.67;3.40;;;28.60;65.50;;;;;;5090414;28;20457;-69
2022/08/02 09:21:16;;;;;;;14.93;5.73;;;28.60;65.50;;;;;;5093577;28;20442;-66
2022/08/02 09:23:46;;;;;;;3.50;3.30;;;28.60;65.40;;;;;;5087817;28;20587;-67
2022/08/02 09:26:15;;;;;;;3.57;3.30;;;28.60;65.40;;;;;;5090740;28;20457;-67
2022/08/02 09:28:46;;;;;;;3.30;3.10;;;28.70;65.40;;;;;;5087301;28;20481;-68
2022/08/02 09:31:16;;;;;;;3.37;3.17;;;28.70;65.30;;;;;;5091527;28;21017;-66
2022/08/02 09:33:53;;;;;;;3.60;3.40;;;28.70;65.30;;;;;;5085870;28;20481;-68
2022/08/02 09:36:24;;;;;;;3.17;2.87;;;28.70;65.30;;;;;;5089437;28;21056;-66
2022/08/02 09:38:55;;;;;;;3.37;3.07;;;28.70;65.20;;;;;;5087587;28;20503;-67
2022/08/02 09:41:25;;;;;;;4.13;3.20;;;28.70;65.30;;;;;;5088476;28;20508;-67
2022/08/02 09:43:55;;;;;;;2.87;2.67;;;28.80;65.10;;;;;;5092122;28;20455;-66
2022/08/02 09:46:37;;;;;;;3.63;3.33;;;28.80;65.10;;;;;;5092220;28;20538;-68
2022/08/02 09:49:08;;;;;;;3.23;2.93;;;28.80;65.10;;;;;;5091203;28;20944;-67
2022/08/02 09:51:40;;;;;;;3.10;2.77;;;28.80;65.40;;;;;;5090577;28;20537;-67
2022/08/02 09:54:11;;;;;;;3.67;3.10;;;28.80;65.50;;;;;;5088599;28;20451;-67
2022/08/02 09:56:45;;;;;;;3.93;2.80;;;28.80;65.20;;;;;;5087358;28;20995;-69
2022/08/02 09:59:14;;;;;;;3.60;3.33;;;28.90;65.10;;;;;;5087726;28;20941;-66
2022/08/02 10:01:44;;;;;;;3.10;2.90;;;28.90;64.80;;;;;;5091238;28;20452;-67
2022/08/02 10:04:31;;;;;;;3.50;3.20;;;28.90;64.70;;;;;;5085739;28;20497;-67
2022/08/02 10:07:21;;;;;;;4.03;3.10;;;28.90;64.60;;;;;;5081406;28;20462;-68
2022/08/02 10:09:51;;;;;;;7.67;2.70;;;28.80;64.80;;;;;;5087885;28;20456;-68
2022/08/02 10:12:21;;;;;;;3.83;3.00;;;28.80;64.80;;;;;;5088317;28;20455;-68
2022/08/02 10:14:51;;;;;;;3.00;2.80;;;28.80;64.80;;;;;;5085966;28;20443;-68
2022/08/02 10:17:21;;;;;;;4.07;2.57;;;28.80;64.70;;;;;;5090683;28;20688;-68
2022/08/02 10:19:49;;;;;;;2.83;2.63;;;28.80;64.60;;;;;;5084379;28;20585;-67
2022/08/02 10:22:33;;;;;;;2.93;2.40;;;28.80;64.40;;;;;;5081642;28;20910;-69
2022/08/02 10:25:04;;;;;;;2.50;2.30;;;28.90;64.30;;;;;;5089905;28;20482;-70
2022/08/02 10:27:34;;;;;;;2.30;2.10;;;28.80;64.30;;;;;;5090672;28;20490;-68
2022/08/02 10:30:24;;;;;;;2.50;2.40;;;28.90;64.40;;;;;;5091287;28;20802;-69
2022/08/02 10:32:56;;;;;;;2.73;2.53;;;28.90;64.70;;;;;;5090211;28;20456;-68
2022/08/02 10:35:25;;;;;;;2.43;2.23;;;28.90;64.60;;;;;;5095349;28;21004;-67
2022/08/02 10:38:02;;;;;;;2.80;2.30;;;28.90;64.40;;;;;;5090784;28;20444;-67
2022/08/02 10:40:43;;;;;;;2.60;2.40;;;28.90;64.30;;;;;;5090876;28;20443;-67
2022/08/02 10:43:12;;;;;;;2.77;2.57;;;28.90;64.40;;;;;;5097984;28;20450;-67
2022/08/02 10:45:40;;;;;;;1.97;1.87;;;28.90;64.30;;;;;;5093659;28;20450;-67
2022/08/02 10:48:13;;;;;;;5.07;2.50;;;29.00;64.10;;;;;;5093346;28;20773;-67
2022/08/02 10:50:54;;;;;;;2.17;2.07;;;29.00;64.10;;;;;;5088959;28;21053;-68
2022/08/02 10:53:26;;;;;;;2.43;2.30;;;29.00;64.00;;;;;;5089759;28;20445;-69
2022/08/02 10:55:57;;;;;;;2.43;2.30;;;29.00;64.00;;;;;;5072849;28;20524;-70
2022/08/02 10:58:28;;;;;;;2.40;2.30;;;29.00;63.80;;;;;;5085310;28;20839;-68
2022/08/02 11:00:58;;;;;;;2.40;2.30;;;29.00;63.80;;;;;;5086497;28;20447;-68
2022/08/02 11:03:45;;;;;;;2.47;2.30;;;29.10;63.70;;;;;;5080036;28;20456;-69
2022/08/02 11:06:14;;;;;;;2.40;2.17;;;29.10;63.60;;;;;;5091880;28;20496;-67
2022/08/02 11:09:27;;;;;;;2.80;2.60;;;29.10;63.60;;;;;;5083914;28;20448;-68
2022/08/02 11:12:03;;;;;;;2.40;2.10;;;29.10;63.50;;;;;;5090873;28;20812;-67
2022/08/02 11:14:33;;;;;;;3.03;2.23;;;29.20;63.40;;;;;;5089261;28;20611;-68
2022/08/02 11:17:23;;;;;;;2.13;2.03;;;29.20;63.30;;;;;;5092648;28;20515;-67
2022/08/02 11:20:14;;;;;;;2.50;2.30;;;29.20;63.20;;;;;;5083166;28;20444;-67
2022/08/02 11:22:45;;;;;;;2.07;1.63;;;29.20;63.00;;;;;;5087670;28;20502;-71
2022/08/02 11:25:34;;;;;;;2.50;2.30;;;29.30;62.90;;;;;;5094347;28;20926;-71
2022/08/02 11:28:24;;;;;;;1.87;1.77;;;29.30;62.90;;;;;;5087926;28;20484;-68
2022/08/02 11:31:01;;;;;;;2.53;2.43;;;29.30;62.60;;;;;;5094919;28;20453;-70
2022/08/02 11:33:35;;;;;;;1.83;1.70;;;29.30;62.60;;;;;;5084574;28;20446;-67
2022/08/02 11:36:15;;;;;;;2.07;1.90;;;29.40;62.50;;;;;;5097653;28;20474;-67
2022/08/02 11:38:43;;;;;;;2.20;1.80;;;29.50;62.40;;;;;;5085379;28;20447;-69
2022/08/02 11:41:20;;;;;;;1.90;1.80;;;29.50;62.20;;;;;;5091045;28;20491;-67
2022/08/02 11:44:09;;;;;;;2.20;2.00;;;29.60;61.90;;;;;;5090642;28;20536;-68
2022/08/02 11:46:37;;;;;;;6.70;2.33;;;29.70;61.80;;;;;;5087466;28;20451;-68
2022/08/02 11:49:15;;;;;;;1.70;1.60;;;29.80;61.60;;;;;;5085811;28;20512;-68
2022/08/02 11:51:56;;;;;;;2.10;2.00;;;29.90;61.50;;;;;;5090811;28;20487;-68
2022/08/02 11:54:32;;;;;;;1.80;1.70;;;30.00;61.20;;;;;;5087854;28;20463;-66
2022/08/02 11:57:15;;;;;;;1.87;1.77;;;30.10;60.90;;;;;;5088337;28;20472;-66
2022/08/02 11:59:50;;;;;;;2.70;1.80;;;30.20;60.70;;;;;;5092005;28;20460;-66
2022/08/02 12:02:20;;;;;;;1.90;1.80;;;30.30;60.40;;;;;;5090137;28;20864;-66
2022/08/02 12:04:56;;;;;;;2.20;2.10;;;30.40;60.20;;;;;;5089494;28;21113;-68
2022/08/02 12:07:32;;;;;;;1.90;1.80;;;30.50;60.00;;;;;;5088179;28;20452;-66
2022/08/02 12:10:05;;;;;;;1.63;1.53;;;30.70;59.60;;;;;;5091928;28;20460;-67
2022/08/02 12:12:47;;;;;;;1.37;1.37;;;30.80;59.30;;;;;;5089856;28;20448;-66
2022/08/02 12:15:16;;;;;;;1.80;1.70;;;30.90;59.10;;;;;;5091536;28;20478;-66
2022/08/02 12:20:37;;;;;;;1.83;1.73;;;31.20;58.60;;;;;;5081374;28;20488;-71
2022/08/02 12:23:05;;;;;;;2.13;2.00;;;31.30;58.20;;;;;;5089366;28;21946;-72
2022/08/02 12:25:34;;;;;;;3.17;2.23;;;31.60;57.50;;;;;;5090002;28;21031;-73
2022/08/02 12:28:21;;;;;;;7.23;3.80;;;31.60;57.30;;;;;;5092009;28;20542;-72
2022/08/02 12:30:52;;;;;;;7.77;4.10;;;31.50;57.40;;;;;;5090786;28;20461;-72
2022/08/02 12:33:21;;;;;;;3.50;3.20;;;31.40;57.30;;;;;;5093079;28;20478;-73
2022/08/02 12:35:50;;;;;;;4.60;3.10;;;31.40;57.30;;;;;;5090638;28;20472;-72
2022/08/02 12:38:18;;;;;;;4.40;2.90;;;31.50;57.10;;;;;;5091801;28;21143;-72
2022/08/02 12:40:47;;;;;;;4.07;3.27;;;31.70;56.80;;;;;;5092547;28;20500;-73
2022/08/02 12:43:22;;;;;;;2.87;2.67;;;31.80;56.30;;;;;;5091392;28;20513;-73
2022/08/02 12:45:52;;;;;;;2.97;2.60;;;31.90;56.10;;;;;;5090428;28;20965;-73
2022/08/02 12:48:36;;;;;;;4.90;2.50;;;32.00;55.90;;;;;;5091414;28;20498;-72
2022/08/02 12:51:19;;;;;;;2.60;2.40;;;31.80;56.20;;;;;;5091136;28;20499;-73
2022/08/02 12:53:49;;;;;;;2.30;2.10;;;31.50;56.60;;;;;;5091472;28;20563;-73
2022/08/02 12:56:29;;;;;;;2.43;2.23;;;31.30;57.00;;;;;;5090943;28;20443;-73
2022/08/02 12:58:59;;;;;;;2.80;2.63;;;31.10;57.50;;;;;;5092497;28;21019;-74
2022/08/02 13:01:28;;;;;;;2.63;2.20;;;31.20;57.20;;;;;;5090470;28;20477;-75
2022/08/02 13:03:57;;;;;;;2.10;2.00;;;31.40;57.00;;;;;;5093033;28;20494;-73
2022/08/02 13:06:41;;;;;;;3.33;2.70;;;31.40;56.80;;;;;;5090340;28;20545;-72
2022/08/02 13:09:15;;;;;;;2.40;1.90;;;31.40;56.90;;;;;;5091352;28;20460;-71
2022/08/02 13:11:43;;;;;;;2.47;1.93;;;31.30;57.30;;;;;;5091945;28;20466;-71
2022/08/02 13:14:13;;;;;;;1.90;1.80;;;31.30;57.40;;;;;;5079088;28;21053;-73
2022/08/02 13:16:43;;;;;;;2.17;2.00;;;31.30;57.30;;;;;;5091628;28;20539;-71
2022/08/02 13:19:12;;;;;;;2.10;2.00;;;31.40;57.20;;;;;;5091899;28;21032;-73